sensor_id;sensor_type;location;lat;lon;timestamp;temperature;humidity
18581;DHT22;9420;50.876;7.012;2022-08-25T00:01:57;22.20;99.90
18581;DHT22;9420;50.876;7.012;2022-08-25T00:04:27;22.10;99.90
18581;DHT22;9420;50.876;7.012;2022-08-25T00:06:55;22.10;99.90
18581;DHT22;9420;50.876;7.012;2022-08-25T00:09:24;22.00;99.90
18581;DHT22;9420;50.876;7.012;2022-08-25T00:11:53;22.00;99.90
18581;DHT22;9420;50.876;7.012;2022-08-25T00:14:23;21.90;99.90
18581;DHT22;9420;50.876;7.012;2022-08-25T00:16:52;21.80;99.90
18581;DHT22;9420;50.876;7.012;2022-08-25T00:19:23;21.80;99.90
18581;DHT22;9420;50.876;7.012;2022-08-25T00:21:54;21.80;99.90
18581;DHT22;9420;50.876;7.012;2022-08-25T00:24:23;21.60;99.90
18581;DHT22;9420;50.876;7.012;2022-08-25T00:26:53;21.40;99.90
18581;DHT22;9420;50.876;7.012;2022-08-25T00:29:23;21.30;99.90
18581;DHT22;9420;50.876;7.012;2022-08-25T00:31:51;21.20;99.90
18581;DHT22;9420;50.876;7.012;2022-08-25T00:34:22;21.20;99.90
18581;DHT22;9420;50.876;7.012;2022-08-25T00:36:54;21.20;99.90
18581;DHT22;9420;50.876;7.012;2022-08-25T00:39:23;21.20;99.90
18581;DHT22;9420;50.876;7.012;2022-08-25T00:41:52;21.30;99.90
18581;DHT22;9420;50.876;7.012;2022-08-25T00:44:21;21.20;99.90
18581;DHT22;9420;50.876;7.012;2022-08-25T00:46:52;21.20;99.90
18581;DHT22;9420;50.876;7.012;2022-08-25T00:49:24;21.30;99.90
18581;DHT22;9420;50.876;7.012;2022-08-25T00:51:59;21.40;99.90
18581;DHT22;9420;50.876;7.012;2022-08-25T00:54:31;21.40;99.90
18581;DHT22;9420;50.876;7.012;2022-08-25T00:57:05;21.40;99.90
18581;DHT22;9420;50.876;7.012;2022-08-25T00:59:33;21.30;99.90
18581;DHT22;9420;50.876;7.012;2022-08-25T01:02:03;21.30;99.90
18581;DHT22;9420;50.876;7.012;2022-08-25T01:04:32;21.20;99.90
18581;DHT22;9420;50.876;7.012;2022-08-25T01:07:01;21.20;99.90
18581;DHT22;9420;50.876;7.012;2022-08-25T01:09:31;21.10;99.90
18581;DHT22;9420;50.876;7.012;2022-08-25T01:11:59;21.10;99.90
18581;DHT22;9420;50.876;7.012;2022-08-25T01:14:28;21.20;99.90
18581;DHT22;9420;50.876;7.012;2022-08-25T01:16:58;21.30;99.90
18581;DHT22;9420;50.876;7.012;2022-08-25T01:19:26;21.30;99.90
18581;DHT22;9420;50.876;7.012;2022-08-25T01:21:55;21.20;99.90
18581;DHT22;9420;50.876;7.012;2022-08-25T01:24:28;21.30;99.90
18581;DHT22;9420;50.876;7.012;2022-08-25T01:27:01;21.20;99.90
18581;DHT22;9420;50.876;7.012;2022-08-25T01:29:29;21.10;99.90
18581;DHT22;9420;50.876;7.012;2022-08-25T01:31:58;21.20;99.90
18581;DHT22;9420;50.876;7.012;2022-08-25T01:34:32;21.00;99.90
18581;DHT22;9420;50.876;7.012;2022-08-25T01:37:03;21.00;99.90
18581;DHT22;9420;50.876;7.012;2022-08-25T01:39:31;20.90;99.90
18581;DHT22;9420;50.876;7.012;2022-08-25T01:42:23;20.80;99.90
18581;DHT22;9420;50.876;7.012;2022-08-25T01:44:58;20.70;99.90
18581;DHT22;9420;50.876;7.012;2022-08-25T01:47:25;20.60;99.90
18581;DHT22;9420;50.876;7.012;2022-08-25T01:49:53;20.50;99.90
18581;DHT22;9420;50.876;7.012;2022-08-25T01:52:24;20.50;99.90
18581;DHT22;9420;50.876;7.012;2022-08-25T01:54:55;20.40;99.90
18581;DHT22;9420;50.876;7.012;2022-08-25T01:57:22;20.20;99.90
18581;DHT22;9420;50.876;7.012;2022-08-25T01:59:49;20.00;99.90
18581;DHT22;9420;50.876;7.012;2022-08-25T02:02:16;19.90;99.90
18581;DHT22;9420;50.876;7.012;2022-08-25T02:04:43;19.80;99.90
18581;DHT22;9420;50.876;7.012;2022-08-25T02:07:11;19.80;99.90
18581;DHT22;9420;50.876;7.012;2022-08-25T02:09:39;19.70;99.90
18581;DHT22;9420;50.876;7.012;2022-08-25T02:12:07;19.60;99.90
18581;DHT22;9420;50.876;7.012;2022-08-25T02:14:34;19.60;99.90
18581;DHT22;9420;50.876;7.012;2022-08-25T02:17:03;19.60;99.90
18581;DHT22;9420;50.876;7.012;2022-08-25T02:19:31;19.60;99.90
18581;DHT22;9420;50.876;7.012;2022-08-25T02:21:59;19.60;99.90
18581;DHT22;9420;50.876;7.012;2022-08-25T02:24:27;19.70;99.90
18581;DHT22;9420;50.876;7.012;2022-08-25T02:26:56;19.80;99.90
18581;DHT22;9420;50.876;7.012;2022-08-25T02:29:23;19.90;99.90
18581;DHT22;9420;50.876;7.012;2022-08-25T02:31:51;20.00;99.90
18581;DHT22;9420;50.876;7.012;2022-08-25T02:34:18;19.90;99.90
18581;DHT22;9420;50.876;7.012;2022-08-25T02:36:45;20.00;99.90
18581;DHT22;9420;50.876;7.012;2022-08-25T02:39:12;20.00;99.90
18581;DHT22;9420;50.876;7.012;2022-08-25T02:41:39;20.30;99.90
18581;DHT22;9420;50.876;7.012;2022-08-25T02:44:08;20.30;99.90
18581;DHT22;9420;50.876;7.012;2022-08-25T02:46:37;20.40;99.90
18581;DHT22;9420;50.876;7.012;2022-08-25T02:49:05;20.50;99.90
18581;DHT22;9420;50.876;7.012;2022-08-25T02:51:34;20.40;99.90
18581;DHT22;9420;50.876;7.012;2022-08-25T02:54:04;20.40;99.90
18581;DHT22;9420;50.876;7.012;2022-08-25T02:56:32;20.30;99.90
18581;DHT22;9420;50.876;7.012;2022-08-25T02:58:59;20.20;99.90
18581;DHT22;9420;50.876;7.012;2022-08-25T03:01:29;20.30;99.90
18581;DHT22;9420;50.876;7.012;2022-08-25T03:03:58;20.30;99.90
18581;DHT22;9420;50.876;7.012;2022-08-25T03:06:26;20.30;99.90
18581;DHT22;9420;50.876;7.012;2022-08-25T03:08:54;20.40;99.90
18581;DHT22;9420;50.876;7.012;2022-08-25T03:11:22;20.50;99.90
18581;DHT22;9420;50.876;7.012;2022-08-25T03:13:51;20.50;99.90
18581;DHT22;9420;50.876;7.012;2022-08-25T03:16:18;20.50;99.90
18581;DHT22;9420;50.876;7.012;2022-08-25T03:18:48;20.50;99.90
18581;DHT22;9420;50.876;7.012;2022-08-25T03:21:16;20.50;99.90
18581;DHT22;9420;50.876;7.012;2022-08-25T03:23:44;20.70;99.90
18581;DHT22;9420;50.876;7.012;2022-08-25T03:26:11;20.70;99.90
18581;DHT22;9420;50.876;7.012;2022-08-25T03:28:56;20.70;99.90
18581;DHT22;9420;50.876;7.012;2022-08-25T03:31:24;20.70;99.90
18581;DHT22;9420;50.876;7.012;2022-08-25T03:33:54;20.60;99.90
18581;DHT22;9420;50.876;7.012;2022-08-25T03:36:21;20.60;99.90
18581;DHT22;9420;50.876;7.012;2022-08-25T03:38:49;20.70;99.90
18581;DHT22;9420;50.876;7.012;2022-08-25T03:41:19;20.60;99.90
18581;DHT22;9420;50.876;7.012;2022-08-25T03:43:49;20.50;99.90
18581;DHT22;9420;50.876;7.012;2022-08-25T03:46:19;20.40;99.90
18581;DHT22;9420;50.876;7.012;2022-08-25T03:48:48;20.30;99.90
18581;DHT22;9420;50.876;7.012;2022-08-25T03:51:22;20.10;99.90
18581;DHT22;9420;50.876;7.012;2022-08-25T03:53:51;20.10;99.90
18581;DHT22;9420;50.876;7.012;2022-08-25T03:56:19;20.00;99.90
18581;DHT22;9420;50.876;7.012;2022-08-25T03:58:46;19.90;99.90
18581;DHT22;9420;50.876;7.012;2022-08-25T04:01:15;19.90;99.90
18581;DHT22;9420;50.876;7.012;2022-08-25T04:03:43;19.90;99.90
18581;DHT22;9420;50.876;7.012;2022-08-25T04:06:10;19.90;99.90
18581;DHT22;9420;50.876;7.012;2022-08-25T04:08:39;19.80;99.90
18581;DHT22;9420;50.876;7.012;2022-08-25T04:11:08;19.70;99.90
18581;DHT22;9420;50.876;7.012;2022-08-25T04:13:38;19.60;99.90
18581;DHT22;9420;50.876;7.012;2022-08-25T04:16:10;19.70;99.90
18581;DHT22;9420;50.876;7.012;2022-08-25T04:18:38;19.70;99.90
18581;DHT22;9420;50.876;7.012;2022-08-25T04:21:07;19.60;99.90
18581;DHT22;9420;50.876;7.012;2022-08-25T04:23:36;19.60;99.90
18581;DHT22;9420;50.876;7.012;2022-08-25T04:26:09;19.50;99.90
18581;DHT22;9420;50.876;7.012;2022-08-25T04:28:37;19.50;99.90
18581;DHT22;9420;50.876;7.012;2022-08-25T04:31:06;19.40;99.90
18581;DHT22;9420;50.876;7.012;2022-08-25T04:33:34;19.30;99.90
18581;DHT22;9420;50.876;7.012;2022-08-25T04:36:01;19.20;99.90
18581;DHT22;9420;50.876;7.012;2022-08-25T04:38:28;19.20;99.90
18581;DHT22;9420;50.876;7.012;2022-08-25T04:40:56;19.30;99.90
18581;DHT22;9420;50.876;7.012;2022-08-25T04:43:25;19.40;99.90
18581;DHT22;9420;50.876;7.012;2022-08-25T04:45:52;19.40;99.90
18581;DHT22;9420;50.876;7.012;2022-08-25T04:48:20;19.40;99.90
18581;DHT22;9420;50.876;7.012;2022-08-25T04:50:48;19.60;99.90
18581;DHT22;9420;50.876;7.012;2022-08-25T04:53:16;19.60;99.90
18581;DHT22;9420;50.876;7.012;2022-08-25T04:55:47;19.70;99.90
18581;DHT22;9420;50.876;7.012;2022-08-25T04:58:15;19.60;99.90
18581;DHT22;9420;50.876;7.012;2022-08-25T05:00:44;19.50;99.90
18581;DHT22;9420;50.876;7.012;2022-08-25T05:03:12;19.40;99.90
18581;DHT22;9420;50.876;7.012;2022-08-25T05:05:39;19.40;99.90
18581;DHT22;9420;50.876;7.012;2022-08-25T05:08:06;19.40;99.90
18581;DHT22;9420;50.876;7.012;2022-08-25T05:10:38;19.40;99.90
18581;DHT22;9420;50.876;7.012;2022-08-25T05:13:06;19.40;99.90
18581;DHT22;9420;50.876;7.012;2022-08-25T05:15:33;19.40;99.90
18581;DHT22;9420;50.876;7.012;2022-08-25T05:18:21;19.40;99.90
18581;DHT22;9420;50.876;7.012;2022-08-25T05:20:49;19.40;99.90
18581;DHT22;9420;50.876;7.012;2022-08-25T05:23:19;19.50;99.90
18581;DHT22;9420;50.876;7.012;2022-08-25T05:25:49;19.50;99.90
18581;DHT22;9420;50.876;7.012;2022-08-25T05:28:18;19.50;99.90
18581;DHT22;9420;50.876;7.012;2022-08-25T05:30:47;19.70;99.90
18581;DHT22;9420;50.876;7.012;2022-08-25T05:33:15;19.80;99.90
18581;DHT22;9420;50.876;7.012;2022-08-25T05:35:44;19.90;99.90
18581;DHT22;9420;50.876;7.012;2022-08-25T05:38:11;19.90;99.90
18581;DHT22;9420;50.876;7.012;2022-08-25T05:40:38;19.90;99.90
18581;DHT22;9420;50.876;7.012;2022-08-25T05:43:05;20.00;99.90
18581;DHT22;9420;50.876;7.012;2022-08-25T05:45:34;20.10;99.90
18581;DHT22;9420;50.876;7.012;2022-08-25T05:48:02;20.10;99.90
18581;DHT22;9420;50.876;7.012;2022-08-25T05:50:29;20.20;99.90
18581;DHT22;9420;50.876;7.012;2022-08-25T05:52:57;20.30;99.90
18581;DHT22;9420;50.876;7.012;2022-08-25T05:55:24;20.30;99.90
18581;DHT22;9420;50.876;7.012;2022-08-25T05:57:51;20.40;99.90
18581;DHT22;9420;50.876;7.012;2022-08-25T06:00:19;20.40;99.90
18581;DHT22;9420;50.876;7.012;2022-08-25T06:02:46;20.50;99.90
18581;DHT22;9420;50.876;7.012;2022-08-25T06:05:17;20.60;99.90
18581;DHT22;9420;50.876;7.012;2022-08-25T06:07:47;20.70;99.90
18581;DHT22;9420;50.876;7.012;2022-08-25T06:10:18;20.80;99.90
18581;DHT22;9420;50.876;7.012;2022-08-25T06:12:46;21.00;99.90
18581;DHT22;9420;50.876;7.012;2022-08-25T06:15:17;21.00;99.90
18581;DHT22;9420;50.876;7.012;2022-08-25T06:17:46;21.10;99.90
18581;DHT22;9420;50.876;7.012;2022-08-25T06:20:17;21.20;99.90
18581;DHT22;9420;50.876;7.012;2022-08-25T06:22:46;21.20;99.90
18581;DHT22;9420;50.876;7.012;2022-08-25T06:25:18;21.30;99.90
18581;DHT22;9420;50.876;7.012;2022-08-25T06:27:46;21.40;99.90
18581;DHT22;9420;50.876;7.012;2022-08-25T06:30:16;21.50;99.90
18581;DHT22;9420;50.876;7.012;2022-08-25T06:32:45;21.60;99.90
18581;DHT22;9420;50.876;7.012;2022-08-25T06:35:16;21.70;99.90
18581;DHT22;9420;50.876;7.012;2022-08-25T06:37:45;21.90;99.90
18581;DHT22;9420;50.876;7.012;2022-08-25T06:40:14;22.00;99.90
18581;DHT22;9420;50.876;7.012;2022-08-25T06:42:46;22.10;99.90
18581;DHT22;9420;50.876;7.012;2022-08-25T06:45:14;22.20;99.90
18581;DHT22;9420;50.876;7.012;2022-08-25T06:47:41;22.30;99.90
18581;DHT22;9420;50.876;7.012;2022-08-25T06:50:09;22.40;99.90
18581;DHT22;9420;50.876;7.012;2022-08-25T06:52:36;22.40;99.90
18581;DHT22;9420;50.876;7.012;2022-08-25T06:55:04;22.50;99.90
18581;DHT22;9420;50.876;7.012;2022-08-25T06:57:32;22.70;99.90
18581;DHT22;9420;50.876;7.012;2022-08-25T07:00:02;22.80;99.90
18581;DHT22;9420;50.876;7.012;2022-08-25T07:02:31;22.90;99.90
18581;DHT22;9420;50.876;7.012;2022-08-25T07:04:58;23.00;99.90
18581;DHT22;9420;50.876;7.012;2022-08-25T07:07:26;23.10;99.90
18581;DHT22;9420;50.876;7.012;2022-08-25T07:09:53;23.20;99.90
18581;DHT22;9420;50.876;7.012;2022-08-25T07:12:20;23.40;99.90
18581;DHT22;9420;50.876;7.012;2022-08-25T07:14:49;23.50;99.90
18581;DHT22;9420;50.876;7.012;2022-08-25T07:17:17;23.60;99.90
18581;DHT22;9420;50.876;7.012;2022-08-25T07:19:45;23.60;99.90
18581;DHT22;9420;50.876;7.012;2022-08-25T07:22:12;23.70;99.90
18581;DHT22;9420;50.876;7.012;2022-08-25T07:24:39;23.90;99.90
18581;DHT22;9420;50.876;7.012;2022-08-25T07:27:07;24.10;99.90
18581;DHT22;9420;50.876;7.012;2022-08-25T07:29:34;24.20;99.90
18581;DHT22;9420;50.876;7.012;2022-08-25T07:32:04;24.30;99.90
18581;DHT22;9420;50.876;7.012;2022-08-25T07:34:33;24.40;99.90
18581;DHT22;9420;50.876;7.012;2022-08-25T07:37:18;24.50;99.90
18581;DHT22;9420;50.876;7.012;2022-08-25T07:39:47;24.60;99.90
18581;DHT22;9420;50.876;7.012;2022-08-25T07:42:15;24.70;99.90
18581;DHT22;9420;50.876;7.012;2022-08-25T07:44:42;24.80;99.90
18581;DHT22;9420;50.876;7.012;2022-08-25T07:47:09;25.00;99.90
18581;DHT22;9420;50.876;7.012;2022-08-25T07:49:38;25.10;99.90
18581;DHT22;9420;50.876;7.012;2022-08-25T07:52:05;25.10;99.90
18581;DHT22;9420;50.876;7.012;2022-08-25T07:54:32;25.30;99.90
18581;DHT22;9420;50.876;7.012;2022-08-25T07:57:00;25.50;99.90
18581;DHT22;9420;50.876;7.012;2022-08-25T07:59:27;25.50;99.90
18581;DHT22;9420;50.876;7.012;2022-08-25T08:01:55;25.60;99.90
18581;DHT22;9420;50.876;7.012;2022-08-25T08:04:22;25.70;99.90
18581;DHT22;9420;50.876;7.012;2022-08-25T08:06:51;25.80;99.90
18581;DHT22;9420;50.876;7.012;2022-08-25T08:09:18;25.90;99.90
18581;DHT22;9420;50.876;7.012;2022-08-25T08:11:45;26.10;99.90
18581;DHT22;9420;50.876;7.012;2022-08-25T08:14:12;26.10;99.90
18581;DHT22;9420;50.876;7.012;2022-08-25T08:16:41;26.20;99.90
18581;DHT22;9420;50.876;7.012;2022-08-25T08:19:08;26.30;99.90
18581;DHT22;9420;50.876;7.012;2022-08-25T08:21:35;26.50;99.90
18581;DHT22;9420;50.876;7.012;2022-08-25T08:24:04;26.70;99.90
18581;DHT22;9420;50.876;7.012;2022-08-25T08:26:32;26.80;99.90
18581;DHT22;9420;50.876;7.012;2022-08-25T08:28:59;27.00;99.90
18581;DHT22;9420;50.876;7.012;2022-08-25T08:31:27;27.10;99.90
18581;DHT22;9420;50.876;7.012;2022-08-25T08:33:55;27.20;99.90
18581;DHT22;9420;50.876;7.012;2022-08-25T08:36:24;27.30;99.90
18581;DHT22;9420;50.876;7.012;2022-08-25T08:38:52;27.40;99.90
18581;DHT22;9420;50.876;7.012;2022-08-25T08:41:47;27.60;99.90
18581;DHT22;9420;50.876;7.012;2022-08-25T08:45:05;27.80;99.90
18581;DHT22;9420;50.876;7.012;2022-08-25T08:47:51;27.80;99.90
18581;DHT22;9420;50.876;7.012;2022-08-25T08:50:32;27.90;99.90
18581;DHT22;9420;50.876;7.012;2022-08-25T08:53:09;28.10;99.90
18581;DHT22;9420;50.876;7.012;2022-08-25T08:55:42;28.20;99.90
18581;DHT22;9420;50.876;7.012;2022-08-25T08:58:17;28.30;99.90
18581;DHT22;9420;50.876;7.012;2022-08-25T09:00:49;28.40;99.90
18581;DHT22;9420;50.876;7.012;2022-08-25T09:03:30;28.40;99.90
18581;DHT22;9420;50.876;7.012;2022-08-25T09:06:04;28.40;99.90
18581;DHT22;9420;50.876;7.012;2022-08-25T09:08:36;28.60;99.90
18581;DHT22;9420;50.876;7.012;2022-08-25T09:11:12;28.90;99.90
18581;DHT22;9420;50.876;7.012;2022-08-25T09:14:05;28.90;99.90
18581;DHT22;9420;50.876;7.012;2022-08-25T09:16:54;28.80;99.90
18581;DHT22;9420;50.876;7.012;2022-08-25T09:19:39;29.00;99.90
18581;DHT22;9420;50.876;7.012;2022-08-25T09:22:21;29.10;99.90
18581;DHT22;9420;50.876;7.012;2022-08-25T09:25:01;29.10;99.90
18581;DHT22;9420;50.876;7.012;2022-08-25T09:27:39;29.10;99.90
18581;DHT22;9420;50.876;7.012;2022-08-25T09:30:14;29.10;99.90
18581;DHT22;9420;50.876;7.012;2022-08-25T09:32:45;29.20;99.90
18581;DHT22;9420;50.876;7.012;2022-08-25T09:35:18;29.30;99.90
18581;DHT22;9420;50.876;7.012;2022-08-25T09:37:57;29.30;99.90
18581;DHT22;9420;50.876;7.012;2022-08-25T09:40:27;29.50;99.90
18581;DHT22;9420;50.876;7.012;2022-08-25T09:42:59;29.60;99.90
18581;DHT22;9420;50.876;7.012;2022-08-25T09:45:36;29.80;99.90
18581;DHT22;9420;50.876;7.012;2022-08-25T09:48:20;29.80;99.90
18581;DHT22;9420;50.876;7.012;2022-08-25T09:50:52;29.90;99.90
18581;DHT22;9420;50.876;7.012;2022-08-25T09:53:24;30.00;99.90
18581;DHT22;9420;50.876;7.012;2022-08-25T09:55:59;30.20;99.90
18581;DHT22;9420;50.876;7.012;2022-08-25T09:58:30;30.40;99.90
18581;DHT22;9420;50.876;7.012;2022-08-25T10:01:12;30.50;99.90
18581;DHT22;9420;50.876;7.012;2022-08-25T10:03:57;30.50;99.90
18581;DHT22;9420;50.876;7.012;2022-08-25T10:06:30;30.70;99.90
18581;DHT22;9420;50.876;7.012;2022-08-25T10:09:03;30.80;99.90
18581;DHT22;9420;50.876;7.012;2022-08-25T10:11:38;31.00;99.90
18581;DHT22;9420;50.876;7.012;2022-08-25T10:14:17;31.20;99.90
18581;DHT22;9420;50.876;7.012;2022-08-25T10:16:48;31.50;99.90
18581;DHT22;9420;50.876;7.012;2022-08-25T10:19:29;31.40;99.90
18581;DHT22;9420;50.876;7.012;2022-08-25T10:22:06;31.90;99.90
18581;DHT22;9420;50.876;7.012;2022-08-25T10:24:36;32.00;99.90
18581;DHT22;9420;50.876;7.012;2022-08-25T10:27:13;32.30;99.90
18581;DHT22;9420;50.876;7.012;2022-08-25T10:30:02;32.30;99.90
18581;DHT22;9420;50.876;7.012;2022-08-25T10:35:37;32.70;99.90
18581;DHT22;9420;50.876;7.012;2022-08-25T10:38:26;32.90;99.90
18581;DHT22;9420;50.876;7.012;2022-08-25T10:41:11;33.10;99.90
18581;DHT22;9420;50.876;7.012;2022-08-25T10:43:56;33.30;99.90
18581;DHT22;9420;50.876;7.012;2022-08-25T10:46:34;33.80;99.90
18581;DHT22;9420;50.876;7.012;2022-08-25T10:49:09;34.10;99.90
18581;DHT22;9420;50.876;7.012;2022-08-25T10:51:51;34.50;99.90
18581;DHT22;9420;50.876;7.012;2022-08-25T10:54:52;34.50;99.90
18581;DHT22;9420;50.876;7.012;2022-08-25T10:57:33;34.60;99.40
18581;DHT22;9420;50.876;7.012;2022-08-25T11:00:06;34.30;99.00
18581;DHT22;9420;50.876;7.012;2022-08-25T11:03:06;34.70;99.90
18581;DHT22;9420;50.876;7.012;2022-08-25T11:05:47;34.40;98.70
18581;DHT22;9420;50.876;7.012;2022-08-25T11:08:29;34.90;97.90
18581;DHT22;9420;50.876;7.012;2022-08-25T11:11:04;35.00;95.70
18581;DHT22;9420;50.876;7.012;2022-08-25T11:13:40;35.50;94.20
18581;DHT22;9420;50.876;7.012;2022-08-25T11:16:17;35.50;94.90
18581;DHT22;9420;50.876;7.012;2022-08-25T11:18:52;36.10;95.60
18581;DHT22;9420;50.876;7.012;2022-08-25T11:21:30;36.60;93.00
18581;DHT22;9420;50.876;7.012;2022-08-25T11:24:13;37.10;89.00
18581;DHT22;9420;50.876;7.012;2022-08-25T11:26:58;37.50;87.90
18581;DHT22;9420;50.876;7.012;2022-08-25T11:29:32;37.70;86.40
18581;DHT22;9420;50.876;7.012;2022-08-25T11:32:03;37.80;84.10
18581;DHT22;9420;50.876;7.012;2022-08-25T11:34:33;37.80;84.70
18581;DHT22;9420;50.876;7.012;2022-08-25T11:37:09;37.40;84.60
18581;DHT22;9420;50.876;7.012;2022-08-25T11:40:09;37.90;84.40
18581;DHT22;9420;50.876;7.012;2022-08-25T11:42:57;38.40;83.50
18581;DHT22;9420;50.876;7.012;2022-08-25T11:45:44;38.60;80.80
18581;DHT22;9420;50.876;7.012;2022-08-25T11:48:28;37.20;81.20
18581;DHT22;9420;50.876;7.012;2022-08-25T11:51:07;37.70;84.50
18581;DHT22;9420;50.876;7.012;2022-08-25T11:53:39;38.10;79.10
18581;DHT22;9420;50.876;7.012;2022-08-25T11:56:11;38.60;78.30
18581;DHT22;9420;50.876;7.012;2022-08-25T11:58:57;38.50;76.10
18581;DHT22;9420;50.876;7.012;2022-08-25T12:04:34;39.60;75.90
18581;DHT22;9420;50.876;7.012;2022-08-25T12:07:24;39.70;74.40
18581;DHT22;9420;50.876;7.012;2022-08-25T12:10:16;39.70;72.00
18581;DHT22;9420;50.876;7.012;2022-08-25T12:13:04;39.90;71.70
18581;DHT22;9420;50.876;7.012;2022-08-25T12:15:57;40.20;67.70
18581;DHT22;9420;50.876;7.012;2022-08-25T12:18:41;40.80;66.60
18581;DHT22;9420;50.876;7.012;2022-08-25T12:21:32;40.70;66.30
18581;DHT22;9420;50.876;7.012;2022-08-25T12:24:10;40.40;64.20
18581;DHT22;9420;50.876;7.012;2022-08-25T12:26:48;40.50;66.00
18581;DHT22;9420;50.876;7.012;2022-08-25T12:29:30;39.90;63.40
18581;DHT22;9420;50.876;7.012;2022-08-25T12:32:16;39.90;66.90
18581;DHT22;9420;50.876;7.012;2022-08-25T12:35:09;40.50;59.60
18581;DHT22;9420;50.876;7.012;2022-08-25T12:38:02;40.90;59.20
18581;DHT22;9420;50.876;7.012;2022-08-25T12:40:37;41.30;59.30
18581;DHT22;9420;50.876;7.012;2022-08-25T12:43:25;41.60;58.70
18581;DHT22;9420;50.876;7.012;2022-08-25T12:49:09;41.80;57.40
18581;DHT22;9420;50.876;7.012;2022-08-25T12:51:56;42.10;56.80
18581;DHT22;9420;50.876;7.012;2022-08-25T12:54:40;42.30;56.60
18581;DHT22;9420;50.876;7.012;2022-08-25T12:57:32;42.10;53.80
18581;DHT22;9420;50.876;7.012;2022-08-25T13:00:12;41.50;52.70
18581;DHT22;9420;50.876;7.012;2022-08-25T13:06:22;41.90;52.90
18581;DHT22;9420;50.876;7.012;2022-08-25T13:12:26;43.10;53.20
18581;DHT22;9420;50.876;7.012;2022-08-25T13:15:00;43.60;50.50
18581;DHT22;9420;50.876;7.012;2022-08-25T13:17:34;43.10;51.00
18581;DHT22;9420;50.876;7.012;2022-08-25T13:20:16;43.00;50.30
18581;DHT22;9420;50.876;7.012;2022-08-25T13:22:50;43.10;49.70
18581;DHT22;9420;50.876;7.012;2022-08-25T13:25:23;42.00;48.90
18581;DHT22;9420;50.876;7.012;2022-08-25T13:27:56;42.20;49.10
18581;DHT22;9420;50.876;7.012;2022-08-25T13:30:27;42.70;50.10
18581;DHT22;9420;50.876;7.012;2022-08-25T13:32:58;43.30;48.30
18581;DHT22;9420;50.876;7.012;2022-08-25T13:35:27;43.70;48.10
18581;DHT22;9420;50.876;7.012;2022-08-25T13:38:12;43.80;47.80
18581;DHT22;9420;50.876;7.012;2022-08-25T13:40:39;43.50;48.60
18581;DHT22;9420;50.876;7.012;2022-08-25T13:43:10;43.70;47.40
18581;DHT22;9420;50.876;7.012;2022-08-25T13:45:41;42.30;47.90
18581;DHT22;9420;50.876;7.012;2022-08-25T13:48:13;42.80;48.90
18581;DHT22;9420;50.876;7.012;2022-08-25T13:51:07;43.30;48.40
18581;DHT22;9420;50.876;7.012;2022-08-25T13:53:48;43.80;48.50
18581;DHT22;9420;50.876;7.012;2022-08-25T13:56:30;43.90;47.20
18581;DHT22;9420;50.876;7.012;2022-08-25T13:59:02;44.40;46.30
18581;DHT22;9420;50.876;7.012;2022-08-25T14:01:42;44.30;48.50
18581;DHT22;9420;50.876;7.012;2022-08-25T14:04:26;44.50;47.30
18581;DHT22;9420;50.876;7.012;2022-08-25T14:07:15;44.50;46.10
18581;DHT22;9420;50.876;7.012;2022-08-25T14:09:53;45.00;47.20
18581;DHT22;9420;50.876;7.012;2022-08-25T14:12:37;44.80;45.60
18581;DHT22;9420;50.876;7.012;2022-08-25T14:15:11;44.40;44.70
18581;DHT22;9420;50.876;7.012;2022-08-25T14:18:01;44.50;43.10
18581;DHT22;9420;50.876;7.012;2022-08-25T14:20:34;44.40;43.80
18581;DHT22;9420;50.876;7.012;2022-08-25T14:23:06;43.90;41.90
18581;DHT22;9420;50.876;7.012;2022-08-25T14:25:37;42.90;44.00
18581;DHT22;9420;50.876;7.012;2022-08-25T14:28:09;43.40;43.70
18581;DHT22;9420;50.876;7.012;2022-08-25T14:30:40;44.20;43.80
18581;DHT22;9420;50.876;7.012;2022-08-25T14:33:10;44.50;44.30
18581;DHT22;9420;50.876;7.012;2022-08-25T14:35:41;44.60;42.60
18581;DHT22;9420;50.876;7.012;2022-08-25T14:38:11;44.50;43.10
18581;DHT22;9420;50.876;7.012;2022-08-25T14:40:39;43.50;44.00
18581;DHT22;9420;50.876;7.012;2022-08-25T14:43:10;43.80;44.80
18581;DHT22;9420;50.876;7.012;2022-08-25T14:45:42;43.50;46.20
18581;DHT22;9420;50.876;7.012;2022-08-25T14:48:16;44.20;45.50
18581;DHT22;9420;50.876;7.012;2022-08-25T14:50:51;44.80;44.20
18581;DHT22;9420;50.876;7.012;2022-08-25T14:53:19;45.10;44.20
18581;DHT22;9420;50.876;7.012;2022-08-25T14:55:47;45.50;43.00
18581;DHT22;9420;50.876;7.012;2022-08-25T14:58:18;45.40;42.40
18581;DHT22;9420;50.876;7.012;2022-08-25T15:00:46;45.50;42.50
18581;DHT22;9420;50.876;7.012;2022-08-25T15:03:16;45.60;41.40
18581;DHT22;9420;50.876;7.012;2022-08-25T15:05:51;45.10;40.40
18581;DHT22;9420;50.876;7.012;2022-08-25T15:08:18;44.00;40.50
18581;DHT22;9420;50.876;7.012;2022-08-25T15:11:03;44.00;41.60
18581;DHT22;9420;50.876;7.012;2022-08-25T15:13:30;44.20;44.10
18581;DHT22;9420;50.876;7.012;2022-08-25T15:15:57;44.90;41.20
18581;DHT22;9420;50.876;7.012;2022-08-25T15:18:25;45.00;40.70
18581;DHT22;9420;50.876;7.012;2022-08-25T15:20:55;45.10;43.60
18581;DHT22;9420;50.876;7.012;2022-08-25T15:23:22;45.10;42.30
18581;DHT22;9420;50.876;7.012;2022-08-25T15:25:53;45.10;44.10
18581;DHT22;9420;50.876;7.012;2022-08-25T15:28:21;45.30;42.60
18581;DHT22;9420;50.876;7.012;2022-08-25T15:30:49;45.40;42.50
18581;DHT22;9420;50.876;7.012;2022-08-25T15:33:17;45.80;42.20
18581;DHT22;9420;50.876;7.012;2022-08-25T15:35:44;46.20;39.60
18581;DHT22;9420;50.876;7.012;2022-08-25T15:38:12;45.70;39.70
18581;DHT22;9420;50.876;7.012;2022-08-25T15:40:39;45.50;39.90
18581;DHT22;9420;50.876;7.012;2022-08-25T15:43:07;45.30;39.70
18581;DHT22;9420;50.876;7.012;2022-08-25T15:45:35;45.40;38.90
18581;DHT22;9420;50.876;7.012;2022-08-25T15:48:03;45.50;39.20
18581;DHT22;9420;50.876;7.012;2022-08-25T15:50:31;45.50;40.10
18581;DHT22;9420;50.876;7.012;2022-08-25T15:52:58;45.10;39.20
18581;DHT22;9420;50.876;7.012;2022-08-25T15:55:27;44.30;39.40
18581;DHT22;9420;50.876;7.012;2022-08-25T15:57:54;44.40;41.30
18581;DHT22;9420;50.876;7.012;2022-08-25T16:00:21;44.20;40.90
18581;DHT22;9420;50.876;7.012;2022-08-25T16:02:49;43.70;39.50
18581;DHT22;9420;50.876;7.012;2022-08-25T16:05:17;42.90;38.30
18581;DHT22;9420;50.876;7.012;2022-08-25T16:07:44;43.10;41.30
18581;DHT22;9420;50.876;7.012;2022-08-25T16:10:12;43.30;42.60
18581;DHT22;9420;50.876;7.012;2022-08-25T16:12:40;43.00;39.30
18581;DHT22;9420;50.876;7.012;2022-08-25T16:15:08;42.80;41.00
18581;DHT22;9420;50.876;7.012;2022-08-25T16:17:36;42.40;42.90
18581;DHT22;9420;50.876;7.012;2022-08-25T16:20:03;41.80;46.30
18581;DHT22;9420;50.876;7.012;2022-08-25T16:22:32;41.80;43.20
18581;DHT22;9420;50.876;7.012;2022-08-25T16:24:59;41.40;47.50
18581;DHT22;9420;50.876;7.012;2022-08-25T16:27:27;40.80;45.90
18581;DHT22;9420;50.876;7.012;2022-08-25T16:29:55;40.40;47.60
18581;DHT22;9420;50.876;7.012;2022-08-25T16:32:22;40.10;48.70
18581;DHT22;9420;50.876;7.012;2022-08-25T16:34:50;39.70;47.60